Time;durP1;ratioP1;P1;durP2;ratioP2;P2;SDS_P1;SDS_P2;PMS_P1;PMS_P2;Temp;Humidity;BMP_temperature;BMP_pressure;BME280_temperature;BME280_humidity;BME280_pressure;Samples;Min_cycle;Max_cycle;Signal;HPM_P1;HPM_P2
2022/07/26 00:01:59;;;;;;;7.18;1.85;;;;;;;21.34;53.29;101251.19;6245350;23;20015;-67
2022/07/26 00:04:25;;;;;;;5.78;1.70;;;;;;;21.43;53.15;101249.28;6245458;23;20012;-67
2022/07/26 00:06:50;;;;;;;6.63;1.85;;;;;;;21.32;53.32;101248.66;6246841;23;20004;-67
2022/07/26 00:09:15;;;;;;;6.15;2.28;;;;;;;21.33;53.35;101249.50;6245791;23;20030;-67
2022/07/26 00:11:41;;;;;;;7.45;1.70;;;;;;;21.35;53.35;101252.03;6246231;23;20008;-67
2022/07/26 00:14:07;;;;;;;10.18;1.92;;;;;;;21.25;53.57;101256.69;6245497;23;20014;-67
2022/07/26 00:16:33;;;;;;;8.32;1.95;;;;;;;21.20;53.68;101251.16;6246012;23;20007;-67
2022/07/26 00:18:59;;;;;;;5.53;1.60;;;;;;;21.26;53.66;101249.91;6245261;23;20086;-67
2022/07/26 00:21:24;;;;;;;8.45;1.80;;;;;;;21.28;53.55;101250.41;6244741;23;20464;-67
2022/07/26 00:23:50;;;;;;;5.28;1.85;;;;;;;21.27;53.59;101254.41;6244497;23;20015;-67
2022/07/26 00:26:15;;;;;;;4.55;1.88;;;;;;;21.18;53.73;101253.47;6245285;23;20123;-67
2022/07/26 00:28:41;;;;;;;5.38;1.70;;;;;;;21.22;53.76;101257.34;6244940;23;20008;-67
2022/07/26 00:31:06;;;;;;;5.05;1.50;;;;;;;21.23;53.77;101255.34;6244796;23;20424;-67
2022/07/26 00:33:32;;;;;;;5.28;1.42;;;;;;;21.26;53.55;101257.53;6245659;23;20099;-68
2022/07/26 00:35:57;;;;;;;8.73;1.73;;;;;;;21.15;53.94;101259.75;6244126;23;20455;-67
2022/07/26 00:38:23;;;;;;;3.53;1.42;;;;;;;21.15;53.86;101262.56;6245080;23;20030;-67
2022/07/26 00:40:48;;;;;;;6.85;2.03;;;;;;;21.11;53.94;101267.19;6245706;23;20008;-67
2022/07/26 00:43:14;;;;;;;10.55;1.80;;;;;;;21.13;53.95;101264.84;6244114;23;20032;-67
2022/07/26 00:45:39;;;;;;;6.38;1.58;;;;;;;21.07;54.22;101264.16;6245348;23;20019;-67
2022/07/26 00:48:05;;;;;;;7.45;1.60;;;;;;;21.08;54.27;101268.63;6245057;23;20028;-67
2022/07/26 00:50:30;;;;;;;6.40;1.40;;;;;;;21.18;53.95;101266.72;6244529;23;20011;-67
2022/07/26 00:52:55;;;;;;;5.53;1.23;;;;;;;21.15;54.03;101261.75;6243758;23;20004;-67
2022/07/26 00:55:21;;;;;;;7.20;1.65;;;;;;;21.16;53.99;101267.06;6245663;23;20000;-67
2022/07/26 00:57:46;;;;;;;7.40;2.10;;;;;;;21.07;54.28;101260.50;6244063;23;20370;-67
2022/07/26 01:00:15;;;;;;;9.07;2.00;;;;;;;21.03;54.49;101265.09;6244696;23;20015;-67
2022/07/26 01:02:41;;;;;;;5.72;1.65;;;;;;;21.12;54.81;101263.19;6244703;23;20005;-67
2022/07/26 01:05:07;;;;;;;6.38;1.92;;;;;;;21.04;54.56;101259.13;6244724;23;20062;-67
2022/07/26 01:07:32;;;;;;;5.88;1.80;;;;;;;21.08;54.42;101259.31;6244513;23;20069;-67
2022/07/26 01:09:57;;;;;;;9.77;2.10;;;;;;;21.02;54.88;101261.41;6243965;23;20004;-67
2022/07/26 01:12:23;;;;;;;6.45;1.80;;;;;;;21.02;55.08;101258.59;6243722;23;20083;-67
2022/07/26 01:14:48;;;;;;;6.97;1.90;;;;;;;21.04;54.87;101258.28;6245215;23;20416;-67
2022/07/26 01:17:14;;;;;;;10.75;2.35;;;;;;;20.99;55.16;101264.03;6244936;23;20075;-67
2022/07/26 01:19:39;;;;;;;7.93;1.92;;;;;;;20.99;55.24;101249.94;6244182;23;20004;-67
2022/07/26 01:22:05;;;;;;;6.53;1.73;;;;;;;20.96;55.41;101253.38;6243871;23;20032;-68
2022/07/26 01:24:30;;;;;;;7.55;2.50;;;;;;;20.97;55.41;101252.22;6244552;23;20005;-67
2022/07/26 01:26:55;;;;;;;5.28;1.98;;;;;;;20.97;55.24;101250.22;6244388;23;20040;-67
2022/07/26 01:29:22;;;;;;;7.97;2.35;;;;;;;20.95;55.73;101251.72;6245080;23;20000;-67
2022/07/26 01:31:48;;;;;;;8.65;2.10;;;;;;;20.90;55.99;101246.97;6244573;23;20417;-67
2022/07/26 01:34:13;;;;;;;6.00;2.17;;;;;;;20.95;55.87;101246.91;6244176;23;20138;-67
2022/07/26 01:36:38;;;;;;;11.20;2.13;;;;;;;20.94;55.89;101241.56;6244963;23;20448;-67
2022/07/26 01:39:04;;;;;;;6.47;1.88;;;;;;;20.91;56.13;101242.19;6245000;23;20035;-67
2022/07/26 01:41:30;;;;;;;9.27;2.72;;;;;;;20.89;56.60;101241.66;6244579;23;20004;-68
2022/07/26 01:43:55;;;;;;;9.48;2.55;;;;;;;20.96;57.17;101244.91;6246084;23;20014;-67
2022/07/26 01:46:20;;;;;;;9.55;2.40;;;;;;;20.90;57.84;101246.97;6245825;23;20008;-67
2022/07/26 01:48:46;;;;;;;12.63;2.70;;;;;;;20.87;58.41;101253.28;6246898;23;19996;-67
2022/07/26 01:51:11;;;;;;;9.63;2.60;;;;;;;20.89;58.15;101250.97;6245551;23;20439;-67
2022/07/26 01:53:36;;;;;;;9.95;2.35;;;;;;;20.86;58.42;101253.56;6245806;23;20855;-67
2022/07/26 01:56:02;;;;;;;11.75;2.72;;;;;;;20.78;58.48;101258.78;6246998;23;20011;-67
2022/07/26 01:58:28;;;;;;;9.43;2.28;;;;;;;20.77;58.85;101257.13;6245462;23;20376;-67
2022/07/26 02:00:53;;;;;;;13.48;2.83;;;;;;;20.72;58.64;101259.22;6245553;23;20007;-67
2022/07/26 02:03:19;;;;;;;8.43;2.50;;;;;;;20.74;58.49;101254.91;6246458;23;20406;-67
2022/07/26 02:05:44;;;;;;;8.55;2.42;;;;;;;20.66;58.69;101255.63;6246277;23;20018;-67
2022/07/26 02:08:10;;;;;;;7.60;2.65;;;;;;;20.73;58.71;101261.72;6245769;23;20031;-67
2022/07/26 02:13:19;;;;;;;12.98;2.88;;;;;;;20.73;58.64;101258.06;6245420;23;20027;-67
2022/07/26 02:15:45;;;;;;;11.98;3.05;;;;;;;20.76;58.34;101258.28;6245890;23;20008;-67
2022/07/26 02:18:10;;;;;;;10.27;2.90;;;;;;;20.67;58.55;101250.84;6246082;23;20062;-67
2022/07/26 02:20:35;;;;;;;8.48;2.42;;;;;;;20.75;58.12;101255.75;6246890;23;20000;-67
2022/07/26 02:23:02;;;;;;;13.10;2.95;;;;;;;20.71;58.56;101251.88;6244369;23;20004;-67
2022/07/26 02:25:27;;;;;;;9.90;2.72;;;;;;;20.64;58.65;101263.59;6246475;23;20055;-67
2022/07/26 02:27:53;;;;;;;10.27;3.30;;;;;;;20.58;58.89;101262.00;6246783;23;20004;-67
2022/07/26 02:30:18;;;;;;;7.55;2.78;;;;;;;20.61;58.77;101255.75;6246033;23;20078;-67
2022/07/26 02:32:43;;;;;;;11.20;3.20;;;;;;;20.61;58.90;101267.03;6246739;23;20005;-67
2022/07/26 02:35:09;;;;;;;8.82;2.83;;;;;;;20.57;59.16;101261.16;6246050;23;20023;-68
2022/07/26 02:37:35;;;;;;;11.38;3.20;;;;;;;20.60;59.04;101276.66;6245474;23;20420;-67
2022/07/26 02:40:01;;;;;;;12.90;3.15;;;;;;;20.59;59.07;101273.00;6246300;23;20058;-67
2022/07/26 02:42:26;;;;;;;11.23;3.40;;;;;;;20.56;59.15;101265.16;6246168;23;20004;-67
2022/07/26 02:44:52;;;;;;;9.05;2.88;;;;;;;20.57;59.15;101275.28;6245357;23;20413;-67
2022/07/26 02:47:18;;;;;;;11.05;3.53;;;;;;;20.56;59.30;101278.41;6246215;23;20087;-67
2022/07/26 02:49:43;;;;;;;12.68;3.50;;;;;;;20.57;59.34;101280.06;6244644;23;20052;-67
2022/07/26 02:52:08;;;;;;;9.90;3.08;;;;;;;20.56;59.34;101276.44;6245509;23;20016;-67
2022/07/26 02:54:34;;;;;;;13.77;3.65;;;;;;;20.51;59.59;101276.50;6246112;23;20008;-66
2022/07/26 02:56:59;;;;;;;12.60;3.60;;;;;;;20.55;59.35;101277.59;6245648;23;20012;-67
2022/07/26 02:59:24;;;;;;;12.07;3.50;;;;;;;20.49;59.74;101277.97;6246304;23;20004;-67
2022/07/26 03:01:49;;;;;;;16.50;3.83;;;;;;;20.52;60.10;101286.66;6245518;23;20015;-66
2022/07/26 03:04:15;;;;;;;17.25;3.85;;;;;;;20.51;59.89;101284.97;6245799;23;20034;-66
2022/07/26 03:06:40;;;;;;;16.85;4.10;;;;;;;20.51;60.18;101284.13;6245465;23;20012;-66
2022/07/26 03:09:05;;;;;;;15.07;3.78;;;;;;;20.47;60.20;101294.31;6244842;23;20435;-66
2022/07/26 03:11:30;;;;;;;15.20;4.05;;;;;;;20.49;60.19;101292.91;6245212;23;20008;-67
2022/07/26 03:13:56;;;;;;;14.50;3.80;;;;;;;20.49;60.14;101292.91;6245236;23;20388;-67
2022/07/26 03:16:21;;;;;;;11.90;3.67;;;;;;;20.55;59.94;101294.50;6245923;23;20072;-67
2022/07/26 03:18:46;;;;;;;14.88;4.22;;;;;;;20.48;60.24;101302.50;6243935;23;20066;-67
2022/07/26 03:21:12;;;;;;;13.18;3.60;;;;;;;20.48;60.23;101301.66;6246139;23;20035;-67
2022/07/26 03:23:37;;;;;;;19.95;4.40;;;;;;;20.55;60.18;101307.75;6245927;23;20067;-67
2022/07/26 03:26:03;;;;;;;14.82;4.25;;;;;;;20.47;60.42;101306.44;6244384;23;20040;-68
2022/07/26 03:28:30;;;;;;;15.80;4.05;;;;;;;20.48;60.57;101307.28;6245274;23;20004;-66
2022/07/26 03:30:55;;;;;;;10.57;3.85;;;;;;;20.46;60.50;101306.75;6246271;23;20007;-67
2022/07/26 03:33:20;;;;;;;14.38;3.60;;;;;;;20.42;60.80;101297.25;6244850;23;20008;-67
2022/07/26 03:35:46;;;;;;;12.82;4.47;;;;;;;20.41;60.51;101320.94;6245791;23;20083;-67
2022/07/26 03:38:11;;;;;;;17.33;3.80;;;;;;;20.45;60.60;101313.53;6245519;23;20503;-67
2022/07/26 03:40:36;;;;;;;16.70;4.10;;;;;;;20.42;60.73;101319.78;6244561;23;20066;-66
2022/07/26 03:43:01;;;;;;;15.02;3.58;;;;;;;20.45;60.89;101320.03;6245625;23;20095;-67
2022/07/26 03:45:28;;;;;;;10.77;3.65;;;;;;;20.44;60.92;101317.53;6244709;23;20042;-67
2022/07/26 03:47:53;;;;;;;11.90;3.67;;;;;;;20.38;60.99;101319.56;6245294;23;20074;-67
2022/07/26 03:50:21;;;;;;;16.50;3.92;;;;;;;20.39;60.81;101321.25;6245720;23;20448;-67
2022/07/26 03:52:47;;;;;;;13.27;3.80;;;;;;;20.42;60.93;101317.81;6245549;23;20373;-67
2022/07/26 03:57:56;;;;;;;15.70;4.00;;;;;;;20.34;61.14;101316.53;6245298;23;20027;-67
2022/07/26 04:00:21;;;;;;;16.60;4.10;;;;;;;20.38;61.15;101328.03;6244494;23;20000;-67
2022/07/26 04:02:47;;;;;;;11.55;4.20;;;;;;;20.30;61.73;101323.09;6243792;23;20058;-67
2022/07/26 04:05:12;;;;;;;18.63;4.63;;;;;;;20.30;61.77;101334.38;6245470;23;20019;-67
2022/07/26 04:07:44;;;;;;;15.48;4.25;;;;;;;20.29;61.48;101330.72;6244187;23;20066;-67
2022/07/26 04:10:11;;;;;;;14.40;3.80;;;;;;;20.33;61.39;101322.50;6244641;23;20336;-67
2022/07/26 04:12:36;;;;;;;17.15;4.53;;;;;;;20.30;61.83;101331.56;6245901;23;20000;-67
2022/07/26 04:15:02;;;;;;;11.20;4.10;;;;;;;20.32;61.63;101330.09;6244167;23;20413;-67
2022/07/26 04:17:28;;;;;;;14.85;4.30;;;;;;;20.31;61.64;101325.59;6244200;23;20012;-67
2022/07/26 04:19:54;;;;;;;15.30;4.22;;;;;;;20.28;61.74;101328.22;6245380;23;20016;-67
2022/07/26 04:22:25;;;;;;;12.73;4.43;;;;;;;20.31;61.54;101331.22;6243880;23;20320;-67
2022/07/26 04:24:50;;;;;;;15.52;4.05;;;;;;;20.28;61.95;101339.50;6245691;23;20019;-67
2022/07/26 04:27:15;;;;;;;17.02;4.97;;;;;;;20.26;61.92;101344.59;6244765;23;19999;-67
2022/07/26 04:29:41;;;;;;;12.13;3.90;;;;;;;20.27;62.06;101352.72;6244855;23;20376;-67
2022/07/26 04:32:06;;;;;;;13.80;4.20;;;;;;;20.24;62.08;101344.03;6244204;23;20019;-66
2022/07/26 04:34:31;;;;;;;15.52;4.35;;;;;;;20.23;62.16;101345.19;6244819;23;20008;-66
2022/07/26 04:36:59;;;;;;;11.82;3.50;;;;;;;20.28;61.88;101340.31;6244012;23;20360;-67
2022/07/26 04:39:24;;;;;;;13.25;4.35;;;;;;;20.24;62.22;101346.84;6245591;23;20050;-67
2022/07/26 04:41:52;;;;;;;15.63;4.93;;;;;;;20.30;62.31;101346.47;6245200;23;20071;-67
2022/07/26 04:44:17;;;;;;;15.18;4.30;;;;;;;20.26;62.12;101336.97;6244706;23;20321;-67
2022/07/26 04:46:43;;;;;;;12.45;4.07;;;;;;;20.24;62.16;101347.72;6244764;23;20003;-67
2022/07/26 04:49:08;;;;;;;11.15;3.67;;;;;;;20.25;62.36;101340.94;6244218;23;20008;-67
2022/07/26 04:51:33;;;;;;;12.68;4.10;;;;;;;20.25;62.24;101343.75;6244777;23;20004;-67
2022/07/26 04:53:58;;;;;;;18.55;5.03;;;;;;;20.24;62.42;101347.72;6245242;23;20016;-67
2022/07/26 04:56:24;;;;;;;14.95;4.32;;;;;;;20.22;62.31;101355.63;6243323;23;20011;-67
2022/07/26 04:58:49;;;;;;;12.82;4.35;;;;;;;20.19;62.71;101356.25;6242931;23;20430;-67
2022/07/26 05:01:14;;;;;;;14.52;4.68;;;;;;;20.27;62.27;101358.38;6243221;23;20015;-67
2022/07/26 05:03:39;;;;;;;16.23;4.95;;;;;;;20.19;62.68;101355.41;6243489;23;20050;-67
2022/07/26 05:06:05;;;;;;;14.35;4.35;;;;;;;20.15;62.78;101360.81;6243270;23;20012;-68
2022/07/26 05:08:31;;;;;;;14.95;4.50;;;;;;;20.19;62.63;101361.03;6242788;23;20016;-68
2022/07/26 05:10:56;;;;;;;10.25;4.38;;;;;;;20.19;62.68;101359.06;6243779;23;20004;-67
2022/07/26 05:13:21;;;;;;;17.80;4.40;;;;;;;20.21;62.71;101365.25;6243883;23;20004;-67
2022/07/26 05:15:47;;;;;;;12.98;4.38;;;;;;;20.21;62.50;101361.59;6244433;23;20076;-67
2022/07/26 05:18:12;;;;;;;10.68;4.10;;;;;;;20.26;62.48;101367.13;6244745;23;20019;-67
2022/07/26 05:20:38;;;;;;;16.60;4.50;;;;;;;20.27;62.46;101372.47;6246522;23;20365;-67
2022/07/26 05:23:03;;;;;;;14.45;4.30;;;;;;;20.26;62.41;101379.25;6247091;23;20009;-67
2022/07/26 05:25:29;;;;;;;14.27;4.30;;;;;;;20.22;62.54;101375.38;6243988;23;20012;-67
2022/07/26 05:27:54;;;;;;;15.93;4.55;;;;;;;20.19;62.89;101387.25;6245867;23;20000;-67
2022/07/26 05:30:19;;;;;;;17.17;5.05;;;;;;;20.25;62.77;101388.84;6246002;23;20008;-70
2022/07/26 05:32:45;;;;;;;12.90;4.50;;;;;;;20.24;62.64;101392.81;6245773;23;20011;-68
2022/07/26 05:35:11;;;;;;;16.42;4.55;;;;;;;20.24;62.96;101386.31;6245928;23;20010;-68
2022/07/26 05:37:37;;;;;;;13.93;4.15;;;;;;;20.31;62.67;101392.41;6247031;23;20032;-69
2022/07/26 05:40:04;;;;;;;15.02;3.75;;;;;;;20.35;62.49;101399.13;6244738;23;20004;-68
2022/07/26 05:42:29;;;;;;;11.90;4.78;;;;;;;20.45;62.19;101387.69;6246213;23;20004;-68
2022/07/26 05:44:54;;;;;;;12.68;4.20;;;;;;;20.43;62.10;101386.31;6246410;23;20070;-68
2022/07/26 05:47:20;;;;;;;16.25;4.68;;;;;;;20.49;62.14;101397.25;6243796;23;20327;-67
2022/07/26 05:49:45;;;;;;;14.38;4.45;;;;;;;20.47;62.05;101396.66;6243857;23;20004;-68
2022/07/26 05:52:10;;;;;;;10.82;4.50;;;;;;;20.54;61.74;101404.78;6243804;23;20004;-68
2022/07/26 05:54:36;;;;;;;15.73;4.55;;;;;;;20.58;61.53;101403.84;6243331;23;20103;-68
2022/07/26 05:57:01;;;;;;;14.15;4.13;;;;;;;20.70;61.38;101406.19;6244791;23;20008;-66
2022/07/26 05:59:27;;;;;;;6.85;2.53;;;;;;;20.91;60.27;101408.69;6243497;23;20008;-66
2022/07/26 06:01:55;;;;;;;4.93;2.33;;;;;;;21.10;59.78;101415.06;6241682;23;20004;-62
2022/07/26 06:04:25;;;;;;;10.98;4.05;;;;;;;21.05;59.64;101403.88;6244447;23;20008;-65
2022/07/26 06:06:51;;;;;;;4.05;2.17;;;;;;;21.21;59.19;101413.75;6244919;23;20008;-65
2022/07/26 06:09:16;;;;;;;4.75;2.40;;;;;;;21.29;59.14;101413.03;6245752;23;20004;-65
2022/07/26 06:11:41;;;;;;;8.00;2.40;;;;;;;21.40;58.98;101408.06;6244605;23;20011;-64
2022/07/26 06:14:07;;;;;;;6.55;2.47;;;;;;;21.48;58.80;101417.78;6245023;23;20091;-65
2022/07/26 06:16:32;;;;;;;3.80;2.03;;;;;;;21.55;58.27;101409.75;6245869;23;20008;-65
2022/07/26 06:18:58;;;;;;;8.45;2.83;;;;;;;21.61;58.16;101421.75;6244522;23;20083;-65
2022/07/26 06:21:23;;;;;;;10.10;2.92;;;;;;;21.54;58.36;101422.19;6244554;23;20008;-66
2022/07/26 06:23:50;;;;;;;8.27;2.92;;;;;;;21.67;58.87;101415.69;6246711;23;20001;-66
2022/07/26 06:26:15;;;;;;;6.22;2.55;;;;;;;21.77;58.77;101415.50;6245930;23;20004;-66
2022/07/26 06:28:42;;;;;;;5.80;2.33;;;;;;;21.80;58.65;101419.66;6245289;23;20073;-65
2022/07/26 06:31:08;;;;;;;8.38;3.17;;;;;;;21.72;57.85;101421.22;6245448;23;20004;-65
2022/07/26 06:33:33;;;;;;;7.50;2.60;;;;;;;21.83;57.30;101421.84;6244011;23;20003;-67
2022/07/26 06:35:59;;;;;;;8.13;2.72;;;;;;;21.87;57.59;101424.88;6242423;23;20030;-67
2022/07/26 06:38:24;;;;;;;8.13;2.70;;;;;;;21.89;57.89;101417.78;6219050;23;20004;-67
2022/07/26 06:40:50;;;;;;;9.63;2.80;;;;;;;21.97;57.44;101427.50;6245087;23;20004;-67
2022/07/26 06:43:15;;;;;;;8.90;2.53;;;;;;;22.00;57.57;101427.69;6245374;23;20007;-67
2022/07/26 06:45:40;;;;;;;7.30;2.35;;;;;;;22.03;56.52;101429.06;6245244;23;20732;-67
2022/07/26 06:48:05;;;;;;;9.55;2.80;;;;;;;22.06;56.49;101434.06;6245625;23;20008;-67
2022/07/26 06:50:31;;;;;;;6.78;2.42;;;;;;;22.16;56.42;101436.69;6242524;23;20031;-68
2022/07/26 06:52:59;;;;;;;6.82;2.78;;;;;;;22.11;56.04;101430.28;6245509;23;20008;-67
2022/07/26 06:55:25;;;;;;;10.63;2.92;;;;;;;22.21;56.06;101435.75;6246442;23;20012;-68
2022/07/26 06:57:50;;;;;;;6.50;2.40;;;;;;;22.29;56.08;101438.66;6244577;23;20426;-67
2022/07/26 07:00:16;;;;;;;6.72;2.55;;;;;;;22.30;56.06;101440.34;6244040;23;20012;-68
2022/07/26 07:02:41;;;;;;;5.72;2.30;;;;;;;22.28;55.71;101445.50;6242151;23;20012;-70
2022/07/26 07:05:07;;;;;;;6.55;2.40;;;;;;;22.28;56.88;101442.66;6244683;23;20127;-67
2022/07/26 07:07:34;;;;;;;6.45;2.15;;;;;;;22.35;56.55;101455.50;6244693;23;20000;-67
2022/07/26 07:10:00;;;;;;;5.78;2.60;;;;;;;22.37;56.00;101450.38;6245093;23;20093;-67
2022/07/26 07:12:25;;;;;;;6.38;2.47;;;;;;;22.36;55.96;101455.22;6244456;23;20008;-70
2022/07/26 07:14:50;;;;;;;8.73;2.90;;;;;;;22.38;55.83;101464.19;6246121;23;20015;-70
2022/07/26 07:17:19;;;;;;;5.88;2.38;;;;;;;22.33;54.90;101464.31;6243527;23;20309;-72
2022/07/26 07:19:44;;;;;;;8.30;2.05;;;;;;;22.37;55.29;101458.88;6244365;23;20008;-75
2022/07/26 07:22:12;;;;;;;7.82;2.22;;;;;;;22.39;55.46;101462.19;6245187;23;20008;-69
2022/07/26 07:24:38;;;;;;;4.85;2.28;;;;;;;22.48;55.45;101466.81;6243508;23;20019;-74
2022/07/26 07:27:04;;;;;;;7.00;1.88;;;;;;;22.50;55.50;101460.81;6243644;23;20079;-73
2022/07/26 07:29:29;;;;;;;8.18;2.50;;;;;;;22.51;54.97;101459.66;6243686;23;20040;-73
2022/07/26 07:31:54;;;;;;;7.53;2.10;;;;;;;22.51;54.00;101466.13;6244035;23;20019;-73
2022/07/26 07:34:21;;;;;;;5.28;2.20;;;;;;;22.53;54.34;101463.00;6244390;23;20012;-73
2022/07/26 07:36:51;;;;;;;7.18;1.80;;;;;;;22.56;54.30;101470.88;6245312;23;20075;-78
2022/07/26 07:39:17;;;;;;;7.40;1.65;;;;;;;22.51;53.50;101465.31;6243135;22;20020;-75
2022/07/26 07:41:43;;;;;;;7.60;2.20;;;;;;;22.55;53.55;101463.50;6243491;22;20023;-77
2022/07/26 07:44:09;;;;;;;6.22;2.00;;;;;;;22.45;53.24;101466.59;6245774;22;20027;-70
2022/07/26 07:46:34;;;;;;;3.85;1.80;;;;;;;22.49;53.89;101473.28;6243668;22;20420;-68
2022/07/26 07:48:59;;;;;;;4.47;1.88;;;;;;;22.48;53.66;101475.28;6242765;22;20021;-68
2022/07/26 07:51:25;;;;;;;6.18;1.65;;;;;;;22.60;53.67;101468.22;6244823;22;20004;-67
2022/07/26 07:53:54;;;;;;;7.85;1.83;;;;;;;22.57;53.07;101483.03;6244505;22;20012;-70
2022/07/26 07:56:19;;;;;;;4.90;1.73;;;;;;;22.62;53.08;101466.75;6245702;22;20004;-69
2022/07/26 07:58:45;;;;;;;7.35;1.83;;;;;;;22.65;53.37;101468.94;6243566;23;20498;-70
2022/07/26 08:01:10;;;;;;;6.28;1.80;;;;;;;22.65;53.21;101468.09;6244503;23;20012;-76
2022/07/26 08:03:35;;;;;;;5.63;2.17;;;;;;;22.62;53.25;101461.09;6243202;23;20027;-73
2022/07/26 08:06:04;;;;;;;6.55;2.03;;;;;;;22.62;53.45;101477.22;6245500;23;20479;-73
2022/07/26 08:08:29;;;;;;;5.25;1.83;;;;;;;22.46;53.22;101480.41;6244359;23;20015;-72
2022/07/26 08:10:54;;;;;;;6.72;2.45;;;;;;;22.37;54.52;101484.31;6244984;23;20004;-72
2022/07/26 08:13:21;;;;;;;6.65;2.35;;;;;;;22.26;54.85;101490.19;6243542;23;20012;-70
2022/07/26 08:15:46;;;;;;;8.90;2.17;;;;;;;22.30;54.86;101484.75;6245579;23;20004;-70
2022/07/26 08:18:12;;;;;;;6.55;2.25;;;;;;;22.28;55.19;101496.41;6244519;23;20012;-70
2022/07/26 08:20:37;;;;;;;3.38;1.35;;;;;;;22.11;56.35;101498.97;6244362;23;20066;-70
2022/07/26 08:23:02;;;;;;;4.35;1.33;;;;;;;22.06;56.50;101499.09;6243465;22;20070;-70
2022/07/26 08:25:28;;;;;;;2.60;1.00;;;;;;;22.01;57.03;101502.88;6244199;23;20004;-71
2022/07/26 08:28:02;;;;;;;2.83;1.13;;;;;;;22.00;56.45;101512.50;6244888;22;20364;-69
2022/07/26 08:30:28;;;;;;;3.65;1.00;;;;;;;21.96;56.95;101510.59;6241994;22;20018;-70
2022/07/26 08:32:56;;;;;;;3.95;1.17;;;;;;;22.02;56.79;101521.50;6244444;23;20316;-66
2022/07/26 08:35:21;;;;;;;2.08;0.80;;;;;;;21.83;57.79;101517.94;6245211;22;20011;-70
2022/07/26 08:37:47;;;;;;;11.38;0.90;;;;;;;21.77;57.72;101520.03;6246165;22;20022;-68
2022/07/26 08:40:12;;;;;;;2.88;0.73;;;;;;;21.83;57.46;101522.75;6245013;22;20007;-68
2022/07/26 08:42:38;;;;;;;3.00;1.10;;;;;;;21.94;57.35;101518.56;6241433;22;20012;-69
2022/07/26 08:45:03;;;;;;;2.55;0.80;;;;;;;21.97;57.64;101517.97;6246381;23;20391;-69
2022/07/26 08:47:28;;;;;;;1.00;0.68;;;;;;;22.05;57.32;101525.69;6244896;22;20325;-68
2022/07/26 08:49:54;;;;;;;1.42;0.70;;;;;;;22.02;57.76;101520.66;6244407;22;20010;-69
2022/07/26 08:52:19;;;;;;;0.98;0.60;;;;;;;22.00;57.76;101523.78;6244288;23;20424;-69
2022/07/26 08:54:47;;;;;;;2.72;0.80;;;;;;;22.23;56.85;101524.75;6245262;23;20015;-72
2022/07/26 08:57:13;;;;;;;1.17;0.80;;;;;;;22.35;56.69;101529.88;6244220;22;20424;-70
2022/07/26 08:59:39;;;;;;;0.70;0.70;;;;;;;22.27;56.54;101528.63;6243310;22;20008;-69
2022/07/26 09:02:07;;;;;;;1.30;0.70;;;;;;;22.32;56.34;101532.50;6245116;22;20009;-69
2022/07/26 09:04:41;;;;;;;1.10;0.63;;;;;;;22.27;56.21;101534.28;6244462;22;20000;-69
2022/07/26 09:07:10;;;;;;;1.70;0.60;;;;;;;22.29;56.08;101525.50;6245700;22;20051;-69
2022/07/26 09:09:41;;;;;;;0.73;0.65;;;;;;;22.36;55.58;101534.41;6245001;22;20026;-70
2022/07/26 09:12:15;;;;;;;2.10;0.60;;;;;;;22.52;55.58;101540.56;6243039;22;20015;-69
2022/07/26 09:14:40;;;;;;;1.02;0.50;;;;;;;22.63;54.96;101538.31;6245359;22;20569;-70
2022/07/26 09:17:06;;;;;;;2.45;0.90;;;;;;;22.58;55.46;101535.59;6244407;22;19996;-69
2022/07/26 09:19:31;;;;;;;2.00;0.90;;;;;;;22.46;55.79;101541.81;6245641;22;20016;-70
2022/07/26 09:22:06;;;;;;;2.05;1.00;;;;;;;22.42;55.84;101549.25;6243674;22;20003;-70
2022/07/26 09:24:36;;;;;;;1.00;0.70;;;;;;;22.41;55.59;101554.09;6243112;22;20328;-71
2022/07/26 09:27:05;;;;;;;7.32;1.50;;;;;;;22.31;55.98;101554.28;6245495;22;20004;-69
2022/07/26 09:29:44;;;;;;;28.80;2.55;;;;;;;22.41;55.59;101565.41;6244498;22;20340;-68
2022/07/26 09:32:21;;;;;;;73.32;7.78;;;;;;;22.41;55.71;101553.25;6242031;22;20004;-69
2022/07/26 09:34:51;;;;;;;3.97;1.10;;;;;;;22.28;55.68;101560.56;6245095;22;20036;-66
2022/07/26 09:37:33;;;;;;;3.30;1.10;;;;;;;22.23;55.33;101557.88;6243797;22;20014;-69
2022/07/26 09:40:02;;;;;;;5.75;1.40;;;;;;;22.16;55.09;101566.75;6243071;22;20000;-70
2022/07/26 09:42:27;;;;;;;8.77;1.60;;;;;;;22.15;55.28;101564.25;6243568;22;20011;-70
2022/07/26 09:44:56;;;;;;;3.95;1.40;;;;;;;22.09;55.02;101566.31;6244514;23;20011;-70
2022/07/26 09:47:33;;;;;;;3.53;1.45;;;;;;;22.11;55.13;101566.84;6245037;22;20004;-70
2022/07/26 09:50:29;;;;;;;4.07;1.20;;;;;;;22.14;55.11;101568.25;6245502;22;20004;-70
2022/07/26 09:53:07;;;;;;;5.90;1.73;;;;;;;22.13;55.16;101570.22;6225536;22;20016;-70
2022/07/26 09:55:35;;;;;;;6.00;1.45;;;;;;;22.14;55.97;101579.56;6244891;22;20004;-70
2022/07/26 09:58:02;;;;;;;9.55;1.52;;;;;;;22.20;55.62;101581.94;6244794;22;20035;-71
2022/07/26 10:00:32;;;;;;;7.22;1.88;;;;;;;22.35;55.58;101588.44;6244476;22;20143;-70
2022/07/26 10:02:58;;;;;;;5.80;1.38;;;;;;;22.27;55.07;101579.53;6246912;22;20387;-69
2022/07/26 10:05:24;;;;;;;5.97;1.58;;;;;;;22.44;54.77;101578.91;6247091;22;20015;-70
2022/07/26 10:07:51;;;;;;;4.40;1.40;;;;;;;22.23;54.92;101586.97;6246262;23;20008;-70
2022/07/26 10:10:30;;;;;;;5.10;1.38;;;;;;;22.37;54.96;101588.97;6247019;22;20066;-70
2022/07/26 10:12:57;;;;;;;4.68;1.15;;;;;;;22.32;54.79;101587.06;6245711;22;20031;-71
2022/07/26 10:15:35;;;;;;;2.15;1.02;;;;;;;22.33;54.54;101588.78;6246915;22;20000;-70
2022/07/26 10:18:01;;;;;;;2.47;0.90;;;;;;;22.30;54.34;101595.03;6246619;22;20039;-69
2022/07/26 10:20:44;;;;;;;1.67;0.80;;;;;;;22.30;54.58;101600.69;6246047;22;20000;-70
2022/07/26 10:23:32;;;;;;;1.90;0.80;;;;;;;22.25;55.11;101596.00;6246940;22;20376;-70
2022/07/26 10:25:58;;;;;;;3.33;0.95;;;;;;;22.32;55.26;101598.38;6246331;22;20015;-70
2022/07/26 10:28:26;;;;;;;2.15;0.95;;;;;;;22.32;55.19;101606.03;6245729;22;20000;-70
2022/07/26 10:31:12;;;;;;;1.30;0.80;;;;;;;22.22;54.84;101607.94;6246815;22;20039;-70
2022/07/26 10:33:44;;;;;;;2.35;0.88;;;;;;;22.22;54.36;101616.41;6246644;23;20008;-71
2022/07/26 10:36:33;;;;;;;1.90;0.75;;;;;;;22.25;54.24;101621.44;6245685;22;20561;-70
2022/07/26 10:39:12;;;;;;;2.70;0.80;;;;;;;22.42;54.80;101617.97;6246752;23;20074;-70
2022/07/26 10:41:41;;;;;;;2.22;0.50;;;;;;;22.51;53.58;101613.25;6245922;23;20029;-70
2022/07/26 10:44:13;;;;;;;2.75;0.80;;;;;;;22.39;52.56;101615.78;6246735;22;20335;-71
2022/07/26 10:47:01;;;;;;;2.08;0.80;;;;;;;22.54;52.21;101621.13;6244703;23;20074;-71
2022/07/26 10:49:38;;;;;;;1.67;0.60;;;;;;;22.57;51.68;101616.00;6245647;23;20420;-71
2022/07/26 10:52:16;;;;;;;2.70;0.60;;;;;;;22.64;51.93;101617.25;6246345;22;20451;-71
2022/07/26 10:55:02;;;;;;;0.90;0.60;;;;;;;22.68;51.76;101623.13;6246514;22;20020;-71
2022/07/26 10:57:36;;;;;;;0.70;0.40;;;;;;;22.67;51.87;101629.91;6246486;22;20008;-71
2022/07/26 11:00:10;;;;;;;1.05;0.70;;;;;;;22.70;51.15;101630.09;6246177;22;20425;-71
2022/07/26 11:02:36;;;;;;;1.23;0.50;;;;;;;22.65;50.75;101635.88;6245817;22;20496;-71
2022/07/26 11:05:13;;;;;;;1.83;0.68;;;;;;;22.69;51.60;101631.28;6245449;22;20011;-71
2022/07/26 11:08:09;;;;;;;1.45;0.70;;;;;;;22.69;51.21;101638.94;6245991;22;20079;-70
2022/07/26 11:10:39;;;;;;;1.08;0.47;;;;;;;22.68;51.34;101643.75;6245851;22;20008;-70
2022/07/26 11:13:11;;;;;;;3.72;0.90;;;;;;;22.64;52.17;101645.53;6245771;22;19996;-70
2022/07/26 11:16:01;;;;;;;3.38;0.65;;;;;;;22.54;53.32;101659.88;6246542;22;20063;-70
2022/07/26 11:18:31;;;;;;;2.80;0.90;;;;;;;22.46;56.42;101657.78;6233120;22;20038;-70
2022/07/26 11:21:08;;;;;;;3.28;1.00;;;;;;;22.41;58.19;101663.56;6245791;22;20061;-70
2022/07/26 11:23:38;;;;;;;5.63;0.95;;;;;;;22.33;60.22;101665.13;6245439;22;20000;-70
2022/07/26 11:26:11;;;;;;;3.03;0.80;;;;;;;22.34;60.12;101663.13;6245871;22;20336;-71
2022/07/26 11:28:52;;;;;;;2.85;1.10;;;;;;;22.26;59.91;101662.72;6246433;22;20004;-71